This is the latest recevied weather packets stored in our database for station/object VK1KCM-5. If no packets are shown the sender has not sent any weather packets the latest 10 day(s).
| Time | Temp. | Humidity | Pressure | Rain* | Wind** | Luminosity | Snow |
|---|---|---|---|---|---|---|---|
| 1788061888 | 20.56° C | 45% | 1025 hPa | 0 mm | - | - | - |
| 1788061648 | 21.67° C | 43% | 1024.9 hPa | 0 mm | - | - | - |
| 1788061368 | 21.11° C | 46% | 1025.1 hPa | 0 mm | - | - | - |
| 1788061111 | 21.11° C | 46% | 1025 hPa | 0 mm | - | - | - |
| 1788060858 | 20.56° C | 45% | 1025.2 hPa | 0 mm | - | - | - |
| 1788060558 | 21.11° C | 45% | 1025.1 hPa | 0 mm | - | - | - |
| 1788060260 | 20.56° C | 46% | 1025.2 hPa | 0 mm | - | - | - |
| 1788059978 | 21.67° C | 45% | 1025.2 hPa | 0 mm | - | - | - |
| 1788059683 | 21.67° C | 44% | 1025.2 hPa | 0 mm | - | - | - |
| 1788059438 | 20.56° C | 47% | 1025.4 hPa | 0 mm | - | - | - |
| 1788059183 | 20.56° C | 47% | 1025.4 hPa | 0 mm | - | - | - |
| 1788058888 | 20.56° C | 46% | 1025.5 hPa | 0 mm | - | - | - |
| 1788058611 | 21.11° C | 45% | 1025.6 hPa | 0 mm | - | - | - |
| 1788058318 | 20.56° C | 47% | 1025.8 hPa | 0 mm | - | - | - |
| 1788058023 | 20.56° C | 49% | 1025.7 hPa | 0 mm | - | - | - |
| 1788057728 | 20.56° C | 47% | 1025.8 hPa | 0 mm | - | - | - |
| 1788057451 | 20° C | 47% | 1026.1 hPa | 0 mm | - | - | - |
| 1788057188 | 20° C | 47% | 1026.2 hPa | 0 mm | - | - | - |
| 1788056908 | 20° C | 46% | 1026.4 hPa | 0 mm | - | - | - |
| 1788056619 | 19.44° C | 47% | 1026.6 hPa | 0 mm | - | - | - |
| 1788056331 | 19.44° C | 46% | 1026.3 hPa | 0 mm | - | - | - |
| 1788056038 | 18.33° C | 49% | 1026.8 hPa | 0 mm | - | - | - |
| 1788055745 | 18.89° C | 47% | 1027 hPa | 0 mm | - | - | - |
| 1788055483 | 18.89° C | 47% | 1026.8 hPa | 0 mm | - | - | - |
| 1788055211 | 19.44° C | 45% | 1026.9 hPa | 0 mm | - | - | - |
* Rain latest hour (hover to see other rain measurements)
** Current wind speed in m/s (hover to see current wind gust speed)